createdAt,value
2023-03-13T00:02:05.793Z,3.13
2023-03-13T00:04:33.477Z,3.13
2023-03-13T00:07:01.160Z,2.53
2023-03-13T00:09:28.920Z,2.47
2023-03-13T00:11:56.679Z,2.27
2023-03-13T00:14:25.540Z,2.87
2023-03-13T00:16:54.820Z,2.43
2023-03-13T00:19:22.495Z,3.27
2023-03-13T00:21:50.145Z,2.73
2023-03-13T00:24:17.876Z,2.77
2023-03-13T00:26:45.445Z,3.50
2023-03-13T00:29:13.218Z,2.53
2023-03-13T00:31:42.297Z,2.30
2023-03-13T00:34:10.915Z,3.00
2023-03-13T00:36:38.671Z,2.47
2023-03-13T00:39:07.436Z,2.10
2023-03-13T00:41:35.237Z,3.43
2023-03-13T00:44:03.081Z,3.10
2023-03-13T00:46:31.965Z,2.53
2023-03-13T00:49:01.006Z,2.60
2023-03-13T00:51:30.049Z,2.70
2023-03-13T00:54:01.002Z,2.70
2023-03-13T00:56:29.339Z,2.33
2023-03-13T00:58:56.986Z,2.23
2023-03-13T01:01:26.881Z,1.90
2023-03-13T01:03:55.782Z,2.57
2023-03-13T01:06:26.890Z,2.53
2023-03-13T01:08:55.087Z,2.20
2023-03-13T01:11:25.829Z,2.33
2023-03-13T01:13:55.454Z,2.50
2023-03-13T01:16:24.042Z,2.47
2023-03-13T01:18:53.787Z,2.30
2023-03-13T01:21:25.678Z,2.33
2023-03-13T01:23:54.912Z,2.80
2023-03-13T01:26:23.262Z,2.60
2023-03-13T01:28:51.381Z,2.27
2023-03-13T01:31:20.955Z,2.90
2023-03-13T01:33:50.248Z,2.27
2023-03-13T01:36:18.970Z,3.30
2023-03-13T01:38:51.017Z,2.43
2023-03-13T01:41:20.234Z,2.10
2023-03-13T01:43:48.216Z,2.70
2023-03-13T01:46:18.571Z,1.93
2023-03-13T01:48:51.733Z,3.07
2023-03-13T01:51:23.575Z,2.50
2023-03-13T01:53:57.367Z,2.57
2023-03-13T01:56:31.458Z,1.80
2023-03-13T01:59:00.104Z,2.33
2023-03-13T02:01:28.853Z,2.60
2023-03-13T02:04:00.693Z,1.90
2023-03-13T02:06:32.586Z,2.50
2023-03-13T02:09:06.062Z,2.17
2023-03-13T02:11:45.361Z,2.50
2023-03-13T02:14:13.989Z,2.70
2023-03-13T02:16:42.063Z,2.43
2023-03-13T02:19:20.982Z,1.97
2023-03-13T02:21:54.641Z,2.33
2023-03-13T02:24:32.053Z,1.83
2023-03-13T02:27:00.994Z,1.83
2023-03-13T02:29:28.936Z,2.20
2023-03-13T02:31:56.806Z,2.00
2023-03-13T02:34:29.816Z,2.40
2023-03-13T02:36:59.199Z,1.80
2023-03-13T02:39:28.982Z,2.87
2023-03-13T02:41:57.213Z,2.13
2023-03-13T02:44:27.505Z,2.47
2023-03-13T02:46:55.101Z,2.33
2023-03-13T02:49:25.502Z,2.13
2023-03-13T02:51:54.692Z,2.50
2023-03-13T02:54:25.285Z,2.07
2023-03-13T02:56:56.880Z,2.20
2023-03-13T02:59:24.506Z,1.97
2023-03-13T03:01:54.092Z,2.67
2023-03-13T03:04:22.681Z,1.97
2023-03-13T03:06:51.049Z,2.20
2023-03-13T03:09:19.639Z,2.40
2023-03-13T03:11:48.001Z,2.60
2023-03-13T03:14:16.655Z,2.10
2023-03-13T03:16:44.352Z,2.97
2023-03-13T03:19:13.357Z,2.40
2023-03-13T03:21:41.031Z,2.10
2023-03-13T03:24:09.268Z,2.70
2023-03-13T03:26:37.343Z,2.47
2023-03-13T03:29:04.917Z,3.03
2023-03-13T03:31:32.735Z,2.27
2023-03-13T03:34:00.395Z,1.90
2023-03-13T03:36:30.126Z,1.93
2023-03-13T03:38:57.663Z,2.70
2023-03-13T03:41:25.356Z,2.00
2023-03-13T03:43:52.869Z,2.77
2023-03-13T03:46:20.399Z,2.17
2023-03-13T03:48:48.046Z,1.80
2023-03-13T03:51:15.607Z,1.70
2023-03-13T03:53:44.615Z,1.80
2023-03-13T03:56:12.257Z,1.67
2023-03-13T03:58:39.815Z,2.40
2023-03-13T04:01:07.658Z,1.80
2023-03-13T04:03:35.291Z,1.70
2023-03-13T04:06:02.866Z,2.00
2023-03-13T04:08:30.481Z,2.40
2023-03-13T04:11:01.929Z,2.27
2023-03-13T04:13:29.516Z,2.83
2023-03-13T04:15:57.007Z,2.23
2023-03-13T04:18:24.701Z,2.67
2023-03-13T04:20:52.469Z,2.27
2023-03-13T04:23:19.989Z,2.30
2023-03-13T04:25:47.744Z,1.70
2023-03-13T04:28:16.733Z,2.13
2023-03-13T04:30:44.329Z,2.20
2023-03-13T04:33:11.923Z,2.40
2023-03-13T04:35:39.650Z,2.20
2023-03-13T04:38:07.298Z,1.80
2023-03-13T04:40:34.937Z,2.13
2023-03-13T04:43:02.496Z,2.20
2023-03-13T04:45:31.412Z,1.90
2023-03-13T04:47:58.960Z,2.17
2023-03-13T04:50:26.643Z,2.20
2023-03-13T04:52:54.251Z,2.30
2023-03-13T04:55:21.910Z,2.10
2023-03-13T04:57:49.416Z,1.57
2023-03-13T05:00:17.606Z,1.97
2023-03-13T05:02:46.567Z,1.80
2023-03-13T05:05:14.198Z,2.13
2023-03-13T05:07:41.756Z,2.00
2023-03-13T05:10:10.345Z,1.70
2023-03-13T05:12:37.925Z,1.93
2023-03-13T05:15:06.084Z,1.80
2023-03-13T05:17:33.637Z,2.17
2023-03-13T05:20:02.471Z,1.40
2023-03-13T05:22:30.008Z,1.73
2023-03-13T05:24:57.863Z,2.20
2023-03-13T05:27:25.510Z,2.30
2023-03-13T05:29:54.672Z,4.80
2023-03-13T05:32:22.248Z,3.20
2023-03-13T05:34:49.860Z,2.80
2023-03-13T05:37:18.960Z,2.70
2023-03-13T05:39:49.246Z,3.63
2023-03-13T05:42:16.911Z,1.90
2023-03-13T05:44:44.624Z,1.67
2023-03-13T05:47:12.449Z,1.83
2023-03-13T05:49:40.022Z,2.20
2023-03-13T05:52:07.894Z,2.27
2023-03-13T05:54:37.054Z,2.30
2023-03-13T05:57:05.020Z,1.97
2023-03-13T05:59:32.841Z,2.07
2023-03-13T06:02:00.892Z,2.07
2023-03-13T06:04:28.616Z,1.63
2023-03-13T06:06:56.367Z,2.10
2023-03-13T06:09:24.710Z,1.70
2023-03-13T06:11:53.592Z,2.47
2023-03-13T06:14:21.327Z,1.83
2023-03-13T06:16:49.052Z,2.10
2023-03-13T06:19:16.958Z,1.97
2023-03-13T06:21:44.715Z,1.73
2023-03-13T06:24:12.288Z,1.70
2023-03-13T06:26:39.926Z,2.17
2023-03-13T06:29:08.907Z,2.30
2023-03-13T06:31:36.773Z,2.43
2023-03-13T06:34:04.411Z,2.07
2023-03-13T06:36:32.129Z,1.67
2023-03-13T06:38:59.726Z,2.17
2023-03-13T06:41:27.628Z,1.90
2023-03-13T06:43:55.150Z,2.10
2023-03-13T06:46:26.322Z,1.60
2023-03-13T06:48:54.039Z,1.50
2023-03-13T06:51:23.113Z,1.83
2023-03-13T06:53:52.276Z,1.87
2023-03-13T06:56:21.610Z,1.50
2023-03-13T06:58:50.080Z,1.63
2023-03-13T07:01:19.009Z,1.70
2023-03-13T07:03:48.729Z,2.20
2023-03-13T07:06:17.224Z,3.40
2023-03-13T07:08:46.984Z,2.33
2023-03-13T07:11:15.718Z,1.73
2023-03-13T07:13:48.408Z,2.37
2023-03-13T07:16:16.707Z,1.70
2023-03-13T07:18:45.526Z,1.97
2023-03-13T07:21:15.090Z,2.00
2023-03-13T07:23:42.737Z,1.50
2023-03-13T07:26:12.710Z,2.20
2023-03-13T07:28:40.901Z,1.63
2023-03-13T07:31:11.692Z,1.70
2023-03-13T07:33:39.937Z,1.77
2023-03-13T07:36:08.999Z,1.63
2023-03-13T07:38:40.837Z,1.50
2023-03-13T07:41:08.366Z,1.30
2023-03-13T07:43:35.943Z,1.50
2023-03-13T07:46:06.019Z,1.83
2023-03-13T07:48:35.655Z,1.30
2023-03-13T07:51:04.431Z,1.40
2023-03-13T07:53:32.434Z,1.60
2023-03-13T07:56:03.708Z,1.70
2023-03-13T07:58:33.258Z,1.60
2023-03-13T08:01:01.347Z,1.67
2023-03-13T08:03:30.134Z,1.20
2023-03-13T08:06:02.118Z,1.30
2023-03-13T08:08:30.758Z,1.53
2023-03-13T08:11:06.540Z,1.17
2023-03-13T08:13:35.622Z,1.50
2023-03-13T08:16:05.296Z,1.70
2023-03-13T08:18:34.984Z,1.80
2023-03-13T08:21:06.393Z,1.40
2023-03-13T08:23:34.659Z,1.60
2023-03-13T08:26:08.924Z,1.40
2023-03-13T08:28:37.939Z,1.63
2023-03-13T08:31:10.578Z,1.50
2023-03-13T08:33:38.282Z,1.20
2023-03-13T08:36:13.938Z,1.70
2023-03-13T08:38:46.008Z,1.77
2023-03-13T08:41:17.794Z,1.73
2023-03-13T08:43:45.848Z,1.43
2023-03-13T08:46:14.241Z,2.30
2023-03-13T08:48:42.236Z,1.80
2023-03-13T08:51:12.320Z,1.83
2023-03-13T08:53:44.412Z,2.20
2023-03-13T08:56:15.885Z,2.30
2023-03-13T08:58:45.388Z,2.20
2023-03-13T09:01:15.399Z,2.07
2023-03-13T09:03:44.474Z,2.03
2023-03-13T09:06:12.984Z,2.00
2023-03-13T09:08:41.776Z,1.80
2023-03-13T09:11:11.420Z,1.67
2023-03-13T09:13:41.600Z,2.30
2023-03-13T09:16:14.293Z,2.03
2023-03-13T09:18:42.970Z,1.80
2023-03-13T09:21:13.294Z,2.03
2023-03-13T09:23:40.950Z,1.90
2023-03-13T09:26:08.726Z,2.40
2023-03-13T09:28:36.686Z,2.17
2023-03-13T09:31:08.880Z,1.97
2023-03-13T09:33:38.370Z,2.00
2023-03-13T09:36:06.706Z,1.60
2023-03-13T09:38:34.388Z,1.93
2023-03-13T09:41:06.763Z,1.40
2023-03-13T09:43:43.491Z,1.80
2023-03-13T09:46:16.990Z,1.50
2023-03-13T09:48:50.108Z,1.47
2023-03-13T09:51:22.561Z,1.47
2023-03-13T09:53:55.929Z,1.47
2023-03-13T09:56:26.051Z,1.70
2023-03-13T09:58:58.127Z,1.53
2023-03-13T10:01:31.190Z,1.60
2023-03-13T10:04:08.578Z,1.50
2023-03-13T10:06:41.331Z,1.60
2023-03-13T10:09:20.296Z,1.50
2023-03-13T10:11:54.070Z,1.67
2023-03-13T10:14:28.005Z,2.07
2023-03-13T10:17:00.246Z,2.00
2023-03-13T10:19:33.771Z,2.20
2023-03-13T10:22:04.971Z,2.20
2023-03-13T10:24:35.264Z,2.03
2023-03-13T10:27:03.079Z,2.47
2023-03-13T10:29:31.886Z,1.90
2023-03-13T10:32:01.142Z,2.03
2023-03-13T10:34:45.389Z,1.60
2023-03-13T10:37:15.365Z,1.97
2023-03-13T10:39:43.063Z,1.83
2023-03-13T10:42:18.263Z,1.93
2023-03-13T10:44:46.441Z,1.97
2023-03-13T10:47:15.960Z,2.00
2023-03-13T10:49:51.029Z,2.03
2023-03-13T10:52:34.795Z,2.27
2023-03-13T10:55:05.565Z,2.10
2023-03-13T10:57:35.250Z,1.70
2023-03-13T11:00:11.332Z,2.00
2023-03-13T11:02:40.462Z,1.90
2023-03-13T11:05:39.193Z,1.70
2023-03-13T11:08:27.660Z,2.00
2023-03-13T11:10:58.668Z,1.97
2023-03-13T11:13:41.111Z,2.40
2023-03-13T11:16:23.371Z,1.70
2023-03-13T11:19:05.672Z,2.53
2023-03-13T11:21:43.032Z,2.40
2023-03-13T11:24:16.825Z,1.93
2023-03-13T11:27:04.155Z,2.00
2023-03-13T11:29:40.780Z,1.73
2023-03-13T11:32:21.364Z,2.93
2023-03-13T11:34:53.597Z,1.77
2023-03-13T11:37:24.034Z,1.77
2023-03-13T11:40:00.641Z,2.10
2023-03-13T11:42:44.924Z,2.00
2023-03-13T11:45:29.313Z,2.10
2023-03-13T11:48:01.678Z,1.80
2023-03-13T11:50:38.085Z,1.70
2023-03-13T11:53:22.586Z,1.73
2023-03-13T11:55:58.078Z,2.00
2023-03-13T11:58:45.753Z,1.93
2023-03-13T12:01:17.347Z,1.87
2023-03-13T12:03:56.681Z,1.97
2023-03-13T12:06:31.563Z,1.80
2023-03-13T12:09:06.570Z,1.50
2023-03-13T12:11:43.511Z,1.50
2023-03-13T12:14:16.060Z,1.47
2023-03-13T12:16:48.481Z,1.40
2023-03-13T12:19:21.540Z,4.77
2023-03-13T12:21:53.963Z,2.27
2023-03-13T12:24:30.725Z,1.40
2023-03-13T12:27:02.963Z,1.47
2023-03-13T12:29:44.487Z,1.67
2023-03-13T12:32:17.866Z,1.50
2023-03-13T12:34:55.344Z,1.87
2023-03-13T12:37:31.805Z,1.60
2023-03-13T12:40:08.620Z,1.67
2023-03-13T12:42:50.896Z,1.70
2023-03-13T12:45:21.616Z,1.93
2023-03-13T12:48:26.444Z,1.90
2023-03-13T12:51:21.464Z,2.43
2023-03-13T12:54:22.526Z,1.73
2023-03-13T12:57:10.435Z,1.87
2023-03-13T12:59:41.558Z,2.40
2023-03-13T13:02:17.565Z,2.30
2023-03-13T13:04:47.476Z,2.07
2023-03-13T13:07:26.662Z,2.03
2023-03-13T13:10:04.569Z,2.20
2023-03-13T13:12:33.982Z,1.93
2023-03-13T13:15:20.998Z,2.00
2023-03-13T13:18:18.119Z,2.20
2023-03-13T13:20:50.177Z,2.00
2023-03-13T13:23:39.249Z,2.27
2023-03-13T13:26:39.513Z,1.73
2023-03-13T13:29:55.214Z,2.20
2023-03-13T13:32:42.373Z,2.27
2023-03-13T13:35:31.059Z,1.80
2023-03-13T13:38:34.309Z,3.17
2023-03-13T13:41:05.147Z,2.30
2023-03-13T13:43:35.354Z,2.20
2023-03-13T13:46:08.971Z,2.33
2023-03-13T13:48:39.846Z,2.60
2023-03-13T13:51:24.035Z,2.20
2023-03-13T13:53:55.784Z,2.23
2023-03-13T13:56:43.989Z,2.10
2023-03-13T13:59:37.739Z,2.17
2023-03-13T14:02:17.786Z,1.87
2023-03-13T14:04:50.638Z,2.33
2023-03-13T14:07:22.883Z,2.40
2023-03-13T14:09:59.004Z,2.17
2023-03-13T14:12:29.091Z,2.60
2023-03-13T14:15:14.519Z,2.70
2023-03-13T14:17:44.569Z,2.07
2023-03-13T14:20:26.895Z,1.97
2023-03-13T14:22:56.334Z,1.50
2023-03-13T14:25:25.745Z,1.97
2023-03-13T14:27:55.172Z,2.00
2023-03-13T14:30:24.684Z,2.07
2023-03-13T14:32:56.576Z,2.00
2023-03-13T14:35:25.753Z,2.30
2023-03-13T14:37:56.238Z,2.07
2023-03-13T14:40:29.608Z,2.03
2023-03-13T14:42:58.772Z,1.60
2023-03-13T14:45:30.795Z,1.63
2023-03-13T14:48:03.967Z,1.50
2023-03-13T14:50:33.835Z,1.60
2023-03-13T14:53:05.261Z,1.37
2023-03-13T14:55:36.439Z,1.90
2023-03-13T14:58:07.171Z,1.80
2023-03-13T15:00:40.514Z,1.33
2023-03-13T15:03:21.600Z,1.50
2023-03-13T15:06:02.821Z,1.50
2023-03-13T15:08:33.076Z,1.70
2023-03-13T15:11:00.933Z,1.73
2023-03-13T15:13:34.698Z,1.47
2023-03-13T15:16:03.854Z,1.30
2023-03-13T15:18:33.522Z,1.63
2023-03-13T15:21:21.580Z,2.10
2023-03-13T15:23:52.076Z,2.80
2023-03-13T15:26:19.747Z,2.17
2023-03-13T15:28:47.922Z,1.83
2023-03-13T15:31:15.684Z,1.67
2023-03-13T15:33:44.129Z,2.00
2023-03-13T15:36:13.216Z,1.30
2023-03-13T15:38:41.255Z,1.33
2023-03-13T15:41:09.735Z,1.20
2023-03-13T15:43:38.167Z,1.27
2023-03-13T15:46:11.775Z,1.30
2023-03-13T15:48:39.489Z,1.67
2023-03-13T15:51:07.535Z,1.13
2023-03-13T15:53:36.694Z,1.43
2023-03-13T15:56:13.973Z,1.27
2023-03-13T15:58:41.633Z,1.17
2023-03-13T16:01:11.107Z,1.40
2023-03-13T16:03:39.542Z,1.30
2023-03-13T16:06:15.562Z,1.17
2023-03-13T16:11:28.195Z,1.10
2023-03-13T16:13:57.462Z,1.27
2023-03-13T16:16:28.494Z,2.80
2023-03-13T16:18:57.335Z,1.70
2023-03-13T16:21:27.192Z,1.23
2023-03-13T16:23:56.387Z,1.13
2023-03-13T16:26:26.204Z,1.20
2023-03-13T16:28:55.043Z,1.67
2023-03-13T16:31:24.722Z,1.20
2023-03-13T16:33:54.106Z,1.47
2023-03-13T16:36:23.872Z,1.13
2023-03-13T16:38:52.580Z,1.63
2023-03-13T16:41:23.232Z,1.70
2023-03-13T16:43:51.348Z,1.47
2023-03-13T16:46:21.219Z,1.40
2023-03-13T16:48:50.004Z,1.43
2023-03-13T16:51:19.882Z,2.27
2023-03-13T16:53:48.678Z,1.87
2023-03-13T16:56:23.137Z,1.13
2023-03-13T16:58:50.917Z,1.60
2023-03-13T17:01:18.518Z,1.30
2023-03-13T17:03:46.370Z,1.17
2023-03-13T17:06:19.953Z,1.67
2023-03-13T17:08:47.734Z,1.53
2023-03-13T17:11:18.627Z,1.23
2023-03-13T17:13:51.173Z,1.40
2023-03-13T17:16:20.954Z,1.63
2023-03-13T17:18:51.757Z,1.80
2023-03-13T17:21:21.502Z,1.30
2023-03-13T17:23:49.266Z,1.53
2023-03-13T17:26:20.369Z,1.63
2023-03-13T17:28:50.930Z,4.27
2023-03-13T17:31:19.739Z,1.27
2023-03-13T17:33:47.910Z,1.40
2023-03-13T17:36:18.925Z,1.77
2023-03-13T17:38:47.370Z,1.23
2023-03-13T17:41:16.762Z,1.63
2023-03-13T17:43:44.398Z,1.40
2023-03-13T17:46:18.181Z,1.70
2023-03-13T17:48:48.274Z,1.30
2023-03-13T17:51:18.955Z,1.43
2023-03-13T17:53:46.577Z,1.43
2023-03-13T17:56:15.885Z,1.30
2023-03-13T17:58:43.740Z,1.60
2023-03-13T18:01:14.485Z,1.83
2023-03-13T18:03:43.794Z,2.67
2023-03-13T18:06:20.573Z,2.20
2023-03-13T18:08:49.244Z,1.60
2023-03-13T18:11:18.236Z,1.40
2023-03-13T18:13:46.225Z,2.00
2023-03-13T18:16:20.472Z,2.00
2023-03-13T18:18:49.507Z,1.90
2023-03-13T18:21:18.284Z,2.03
2023-03-13T18:23:45.852Z,1.60
2023-03-13T18:26:22.913Z,2.10
2023-03-13T18:28:50.730Z,1.93
2023-03-13T18:31:19.734Z,2.07
2023-03-13T18:33:48.659Z,2.40
2023-03-13T18:36:20.857Z,1.87
2023-03-13T18:38:49.884Z,2.40
2023-03-13T18:41:18.320Z,2.53
2023-03-13T18:43:46.639Z,2.00
2023-03-13T18:46:20.948Z,2.10
2023-03-13T18:48:50.806Z,3.07
2023-03-13T18:51:21.307Z,2.90
2023-03-13T18:53:50.197Z,2.03
2023-03-13T18:56:22.334Z,2.03
2023-03-13T18:58:54.176Z,2.10
2023-03-13T19:01:24.929Z,1.90
2023-03-13T19:03:54.203Z,2.57
2023-03-13T19:06:26.297Z,1.53
2023-03-13T19:08:55.442Z,2.63
2023-03-13T19:11:25.947Z,1.80
2023-03-13T19:13:53.842Z,2.33
2023-03-13T19:16:24.611Z,2.00
2023-03-13T19:18:53.938Z,2.20
2023-03-13T19:21:23.722Z,1.97
2023-03-13T19:23:51.966Z,1.93
2023-03-13T19:26:26.735Z,1.83
2023-03-13T19:28:54.789Z,1.87
2023-03-13T19:31:23.143Z,2.10
2023-03-13T19:33:53.268Z,1.77
2023-03-13T19:36:24.893Z,2.20
2023-03-13T19:38:52.445Z,2.03
2023-03-13T19:41:20.318Z,1.80
2023-03-13T19:43:48.163Z,1.60
2023-03-13T19:46:23.419Z,1.30
2023-03-13T19:48:53.526Z,1.70
2023-03-13T19:51:23.523Z,1.20
2023-03-13T19:53:51.429Z,1.20
2023-03-13T19:56:22.076Z,1.17
2023-03-13T19:58:51.683Z,1.67
2023-03-13T20:01:20.026Z,1.40
2023-03-13T20:03:47.665Z,1.30
2023-03-13T20:06:20.315Z,1.20
2023-03-13T20:08:50.272Z,1.30
2023-03-13T20:11:17.908Z,1.30
2023-03-13T20:13:45.451Z,1.40
2023-03-13T20:16:13.439Z,1.10
2023-03-13T20:18:43.331Z,1.07
2023-03-13T20:21:12.512Z,1.23
2023-03-13T20:23:40.248Z,1.43
2023-03-13T20:26:11.780Z,1.13
2023-03-13T20:28:40.958Z,1.03
2023-03-13T20:31:10.025Z,1.60
2023-03-13T20:33:38.226Z,1.60
2023-03-13T20:36:09.198Z,1.07
2023-03-13T20:38:37.111Z,1.10
2023-03-13T20:41:05.553Z,0.93
2023-03-13T20:43:35.910Z,1.10
2023-03-13T20:46:04.366Z,0.90
2023-03-13T20:48:32.219Z,1.30
2023-03-13T20:51:01.676Z,1.43
2023-03-13T20:53:29.697Z,1.10
2023-03-13T20:55:58.296Z,1.30
2023-03-13T20:58:25.882Z,1.27
2023-03-13T21:00:58.723Z,1.00
2023-03-13T21:03:26.614Z,1.40
2023-03-13T21:05:54.887Z,1.10
2023-03-13T21:08:22.753Z,1.03
2023-03-13T21:10:50.297Z,1.30
2023-03-13T21:13:18.021Z,1.10
2023-03-13T21:15:45.567Z,1.00
2023-03-13T21:18:14.588Z,0.93
2023-03-13T21:20:42.312Z,1.20
2023-03-13T21:23:10.219Z,1.30
2023-03-13T21:25:38.028Z,1.40
2023-03-13T21:28:08.314Z,1.00
2023-03-13T21:30:36.304Z,1.37
2023-03-13T21:33:04.026Z,1.30
2023-03-13T21:35:33.027Z,1.50
2023-03-13T21:38:00.826Z,1.47
2023-03-13T21:40:28.798Z,0.97
2023-03-13T21:42:56.377Z,1.03
2023-03-13T21:45:24.077Z,0.87
2023-03-13T21:47:52.469Z,1.57
2023-03-13T21:52:54.412Z,1.40
2023-03-13T21:55:22.052Z,1.40
2023-03-13T21:57:49.778Z,1.10
2023-03-13T22:00:18.624Z,1.20
2023-03-13T22:02:47.226Z,1.10
2023-03-13T22:05:14.863Z,0.90
2023-03-13T22:07:42.578Z,0.90
2023-03-13T22:10:13.125Z,1.07
2023-03-13T22:12:40.803Z,1.10
2023-03-13T22:15:10.185Z,1.20
2023-03-13T22:17:37.748Z,0.90
2023-03-13T22:20:06.350Z,1.03
2023-03-13T22:22:34.006Z,0.83
2023-03-13T22:25:01.600Z,0.90
2023-03-13T22:27:30.532Z,1.17
2023-03-13T22:29:58.136Z,1.20
2023-03-13T22:32:25.920Z,0.77
2023-03-13T22:34:53.691Z,1.10
2023-03-13T22:37:22.227Z,1.00
2023-03-13T22:39:53.901Z,0.90
2023-03-13T22:42:22.067Z,1.00
2023-03-13T22:44:51.553Z,0.90
2023-03-13T22:47:20.010Z,0.90
2023-03-13T22:49:47.575Z,1.30
2023-03-13T22:52:15.305Z,1.00
2023-03-13T22:54:42.973Z,0.90
2023-03-13T22:57:10.615Z,1.03
2023-03-13T22:59:38.261Z,0.90
2023-03-13T23:02:07.265Z,0.93
2023-03-13T23:04:34.866Z,1.43
2023-03-13T23:07:02.580Z,1.37
2023-03-13T23:09:31.182Z,1.70
2023-03-13T23:11:58.831Z,1.33
2023-03-13T23:14:29.045Z,1.97
2023-03-13T23:16:57.129Z,1.27
2023-03-13T23:19:26.119Z,1.43
2023-03-13T23:21:54.130Z,1.30
2023-03-13T23:24:21.788Z,1.40
2023-03-13T23:26:49.417Z,1.33
2023-03-13T23:29:17.433Z,1.10
2023-03-13T23:31:45.102Z,1.23
2023-03-13T23:34:12.739Z,1.30
2023-03-13T23:36:41.690Z,1.23
2023-03-13T23:39:09.313Z,1.30
2023-03-13T23:41:37.672Z,1.30
2023-03-13T23:44:05.419Z,1.50
2023-03-13T23:46:33.058Z,1.50
2023-03-13T23:49:00.686Z,1.47
2023-03-13T23:51:28.429Z,1.40
2023-03-13T23:53:57.369Z,1.93
2023-03-13T23:56:29.465Z,1.33
2023-03-13T23:58:57.131Z,1.30
